Wetterdaten: aktuell Samstag, 21.04.2018 23:00
Datum Zeit Temp. A. Feuchte A. Luftdruck Regen Wind Richtung Richtung Sonnenschein ET UV Solar Taupunkt Windchill Windben
21.04.2018 23:00 15,1 C 78 % 1016,7 hPa 0,0 l/m 0,0 km/h (0 Bft) NO 39 0 min 0,914 mm 0,0 UV-I 0 W/m 11,3 C 15,1 C 0,0 km/h (0 Bft)
21.04.2018 22:00 16,0 C 75 % 1016,7 hPa 0,0 l/m 1,4 km/h (1 Bft) NO 51 0 min 0,864 mm 0,0 UV-I 0 W/m 11,6 C 16,0 C 4,8 km/h (1 Bft)
21.04.2018 21:00 19,6 C 65 % 1016,5 hPa 0,0 l/m 0,0 km/h (0 Bft) SW 227 12 min 0,101 mm 0,0 UV-I 0 W/m 12,8 C 19,6 C 0,0 km/h (0 Bft)
21.04.2018 20:00 24,7 C 50 % 1016,2 hPa 0,0 l/m 0,0 km/h (0 Bft) O-SO 120 60 min 0,101 mm 0,0 UV-I 52 W/m 13,6 C 24,7 C 0,0 km/h (0 Bft)
21.04.2018 19:00 26,4 C 42 % 1016,3 hPa 0,0 l/m 2,5 km/h (1 Bft) O-NO 70 60 min 0,204 mm 0,4 UV-I 215 W/m 12,4 C 26,4 C 3,2 km/h (1 Bft)
21.04.2018 18:00 25,7 C 46 % 1016,9 hPa 0,0 l/m 2,5 km/h (1 Bft) W-NW 284 33 min 0,254 mm 1,1 UV-I 365 W/m 13,2 C 25,7 C 4,8 km/h (1 Bft)
21.04.2018 17:00 26,7 C 38 % 1017,3 hPa 0,0 l/m 2,2 km/h (1 Bft) N-NW 337 60 min 0,457 mm 2,1 UV-I 576 W/m 11,2 C 26,7 C 6,4 km/h (2 Bft)
21.04.2018 16:00 26,3 C 41 % 1017,9 hPa 0,0 l/m 4,1 km/h (1 Bft) O 86 57 min 0,508 mm 3,2 UV-I 751 W/m 12,0 C 26,3 C 11,3 km/h (2 Bft)
21.04.2018 15:00 25,3 C 45 % 1018,6 hPa 0,0 l/m 2,2 km/h (1 Bft) N-NO 15 60 min 0,533 mm 4,3 UV-I 828 W/m 12,5 C 25,3 C 4,8 km/h (1 Bft)
21.04.2018 14:00 25,3 C 46 % 1019,1 hPa 0,0 l/m 6,0 km/h (2 Bft) N-NO 14 60 min 0,534 mm 4,5 UV-I 764 W/m 12,8 C 25,3 C 12,9 km/h (3 Bft)
21.04.2018 13:00 24,5 C 52 % 1019,9 hPa 0,0 l/m 5,7 km/h (2 Bft) N-NO 28 60 min 0,508 mm 4,5 UV-I 770 W/m 14,0 C 24,5 C 12,9 km/h (3 Bft)
21.04.2018 12:00 23,0 C 56 % 1020,5 hPa 0,0 l/m 4,9 km/h (1 Bft) N-NO 24 60 min 0,406 mm 3,9 UV-I 700 W/m 13,7 C 23,0 C 9,7 km/h (2 Bft)
21.04.2018 11:00 21,9 C 62 % 1020,7 hPa 0,0 l/m 6,5 km/h (2 Bft) O 79 57 min 0,254 mm 2,9 UV-I 627 W/m 14,3 C 21,9 C 11,3 km/h (2 Bft)
21.04.2018 09:55 18,3 C 76 % 1020,7 hPa 0,0 l/m 1,6 km/h (1 Bft) N 360 55 min 0,102 mm 1,8 UV-I 452 W/m 14,0 C 18,3 C 4,8 km/h (1 Bft)
21.04.2018 08:15 10,3 C 97 % 1020,7 hPa 0,0 l/m 0,0 km/h (0 Bft) N 0 25 min 0,025 mm 0,2 UV-I 165 W/m 9,8 C 10,3 C 0,0 km/h (0 Bft)
21.04.2018 06:35 8,1 C 95 % 1020,1 hPa 0,0 l/m 0,0 km/h (0 Bft) N 0 0 min 0,000 mm 0,0 UV-I 7 W/m 7,3 C 8,1 C 0,0 km/h (0 Bft)
21.04.2018 04:55 8,7 C 92 % 1020,2 hPa 0,0 l/m 0,0 km/h (0 Bft) N 0 0 min 0,000 mm 0,0 UV-I 0 W/m 7,5 C 8,7 C 0,0 km/h (0 Bft)
21.04.2018 03:15 9,9 C 91 % 1020,6 hPa 0,0 l/m 0,0 km/h (0 Bft) N 0 0 min 0,000 mm 0,0 UV-I 0 W/m 8,5 C 9,9 C 0,0 km/h (0 Bft)
21.04.2018 02:15 10,6 C 89 % 1020,9 hPa 0,0 l/m 0,0 km/h (0 Bft) W-SW 244 0 min 0,000 mm 0,0 UV-I 0 W/m 8,9 C 10,6 C 0,0 km/h (0 Bft)
21.04.2018 01:15 11,4 C 88 % 1021,2 hPa 0,0 l/m 0,0 km/h (0 Bft) W 267 0 min 0,000 mm 0,0 UV-I 0 W/m 9,5 C 11,4 C 0,0 km/h (0 Bft)
21.04.2018 00:15 12,4 C 86 % 1021,0 hPa 0,0 l/m 0,0 km/h (0 Bft) W-SW 255 0 min 0,000 mm 0,0 UV-I 0 W/m 10,1 C 12,4 C 0,0 km/h (0 Bft)
21.04.2018 00:00 12,7 C 84 % 1020,9 hPa 0,0 l/m 0,8 km/h (0 Bft) W-SW 255 0 min 0,000 mm 0,0 UV-I 0 W/m 10,1 C 12,7 C 1,6 km/h (1 Bft)
_ Min-Zeit 06:25 16:54 19:09 - 00:06 - - - - - - 06:30 06:30 00:06
Minimum _ 8,0 C 37 % 1016,2 hPa - 0,0 km/h (0 Bft) - - - - - - 7,1 C 8,0 C 0,0 km/h (0 Bft)
_ Max-Zeit 16:51 08:00 00:48 00:00 12:18 - - 10:03 23:00 13:27 15:00 12:48 16:51 13:21
Maximum _ 26,8 C 97 % 1021,2 hPa 0,0 l/m 11,4 km/h
NO (2 Bft)
- - 8 min 0,914 mm 4,9 UV-I 828 W/m 15,9 C 26,8 C 17,7 km/h
N (3 Bft)
Durchschnitt _ 17,7 C 69 % 1019,2 hPa #0,0 l/m 1,9 km/h (1 Bft) NO - #11:37 h #5,664 mm 2,7 UV-I 273 W/m 11,1 C 17,6 C 3,7 km/h (1 Bft)